sensor_id;sensor_type;location;lat;lon;timestamp;pressure;altitude;pressure_sealevel;temperature;humidity
71299;BME280;59083;47.974;21.722;2023-03-15T00:01:18;99021.56;;;10.68;57.89
71299;BME280;59083;47.974;21.722;2023-03-15T00:04:20;99013.44;;;10.63;58.06
71299;BME280;59083;47.974;21.722;2023-03-15T00:07:21;99015.94;;;10.58;58.28
71299;BME280;59083;47.974;21.722;2023-03-15T00:10:26;99019.28;;;10.53;58.43
71299;BME280;59083;47.974;21.722;2023-03-15T00:13:27;99015.19;;;10.51;59.11
71299;BME280;59083;47.974;21.722;2023-03-15T00:16:28;99018.06;;;10.49;59.02
71299;BME280;59083;47.974;21.722;2023-03-15T00:19:29;99013.13;;;10.53;58.77
71299;BME280;59083;47.974;21.722;2023-03-15T00:22:31;99008.22;;;10.50;58.95
71299;BME280;59083;47.974;21.722;2023-03-15T00:25:32;99011.91;;;10.49;59.09
71299;BME280;59083;47.974;21.722;2023-03-15T00:28:33;99016.44;;;10.48;59.33
71299;BME280;59083;47.974;21.722;2023-03-15T00:31:36;99025.69;;;10.46;59.90
71299;BME280;59083;47.974;21.722;2023-03-15T00:34:37;99030.41;;;10.44;59.75
71299;BME280;59083;47.974;21.722;2023-03-15T00:37:38;99035.97;;;10.42;59.50
71299;BME280;59083;47.974;21.722;2023-03-15T00:40:39;99027.59;;;10.39;59.63
71299;BME280;59083;47.974;21.722;2023-03-15T00:43:41;99044.59;;;10.38;60.17
71299;BME280;59083;47.974;21.722;2023-03-15T00:46:43;99033.13;;;10.37;60.26
71299;BME280;59083;47.974;21.722;2023-03-15T00:49:44;99041.13;;;10.37;60.59
71299;BME280;59083;47.974;21.722;2023-03-15T00:52:46;99047.94;;;10.33;61.57
71299;BME280;59083;47.974;21.722;2023-03-15T00:55:47;99055.97;;;10.26;61.23
71299;BME280;59083;47.974;21.722;2023-03-15T00:58:49;99046.97;;;10.27;61.09
71299;BME280;59083;47.974;21.722;2023-03-15T01:01:52;99040.87;;;10.20;60.86
71299;BME280;59083;47.974;21.722;2023-03-15T01:04:56;99052.72;;;10.24;61.11
71299;BME280;59083;47.974;21.722;2023-03-15T01:07:57;99059.50;;;10.20;61.45
71299;BME280;59083;47.974;21.722;2023-03-15T01:11:03;99070.31;;;10.25;60.86
71299;BME280;59083;47.974;21.722;2023-03-15T01:14:05;99070.31;;;10.25;61.78
71299;BME280;59083;47.974;21.722;2023-03-15T01:17:08;99084.22;;;10.27;61.16
71299;BME280;59083;47.974;21.722;2023-03-15T01:20:12;99078.50;;;10.30;61.97
71299;BME280;59083;47.974;21.722;2023-03-15T01:23:16;99067.38;;;10.33;62.07
71299;BME280;59083;47.974;21.722;2023-03-15T01:26:17;99070.87;;;10.34;62.28
71299;BME280;59083;47.974;21.722;2023-03-15T01:29:19;99070.87;;;10.34;61.25
71299;BME280;59083;47.974;21.722;2023-03-15T01:32:20;99060.44;;;10.32;62.16
71299;BME280;59083;47.974;21.722;2023-03-15T01:35:21;99053.31;;;10.26;62.52
71299;BME280;59083;47.974;21.722;2023-03-15T01:38:22;99059.25;;;10.28;61.57
71299;BME280;59083;47.974;21.722;2023-03-15T01:41:24;99056.78;;;10.27;62.37
71299;BME280;59083;47.974;21.722;2023-03-15T01:44:55;99056.22;;;10.25;62.78
71299;BME280;59083;47.974;21.722;2023-03-15T01:47:57;99060.12;;;10.22;63.44
71299;BME280;59083;47.974;21.722;2023-03-15T01:51:01;99060.56;;;10.19;63.68
71299;BME280;59083;47.974;21.722;2023-03-15T01:57:37;99053.75;;;10.23;64.85
71299;BME280;59083;47.974;21.722;2023-03-15T02:00:40;99045.56;;;10.25;64.92
71299;BME280;59083;47.974;21.722;2023-03-15T02:03:43;99053.16;;;10.21;64.95
71299;BME280;59083;47.974;21.722;2023-03-15T02:06:47;99045.00;;;10.16;65.09
71299;BME280;59083;47.974;21.722;2023-03-15T02:10:03;99055.84;;;10.15;66.20
71299;BME280;59083;47.974;21.722;2023-03-15T02:13:07;99065.50;;;10.09;66.06
71299;BME280;59083;47.974;21.722;2023-03-15T02:16:09;99060.28;;;9.96;67.12
71299;BME280;59083;47.974;21.722;2023-03-15T02:29:01;99060.22;;;10.03;67.55
71299;BME280;59083;47.974;21.722;2023-03-15T02:32:02;99051.44;;;10.02;67.75
71299;BME280;59083;47.974;21.722;2023-03-15T02:35:06;99047.87;;;10.08;67.96
71299;BME280;59083;47.974;21.722;2023-03-15T02:38:08;99041.53;;;10.09;67.99
71299;BME280;59083;47.974;21.722;2023-03-15T02:41:10;99051.16;;;10.10;68.03
71299;BME280;59083;47.974;21.722;2023-03-15T02:44:20;99053.63;;;10.12;68.27
71299;BME280;59083;47.974;21.722;2023-03-15T02:47:29;99051.78;;;10.12;68.64
71299;BME280;59083;47.974;21.722;2023-03-15T02:50:32;99050.31;;;10.16;68.77
71299;BME280;59083;47.974;21.722;2023-03-15T02:53:33;99050.31;;;10.16;68.56
71299;BME280;59083;47.974;21.722;2023-03-15T02:56:34;99048.66;;;10.15;68.99
71299;BME280;59083;47.974;21.722;2023-03-15T02:59:36;99048.28;;;10.18;68.53
71299;BME280;59083;47.974;21.722;2023-03-15T03:02:38;99043.78;;;10.19;68.84
71299;BME280;59083;47.974;21.722;2023-03-15T03:05:39;99041.69;;;10.14;69.65
71299;BME280;59083;47.974;21.722;2023-03-15T03:08:40;99042.75;;;10.13;69.52
71299;BME280;59083;47.974;21.722;2023-03-15T03:11:42;99045.63;;;10.12;70.10
71299;BME280;59083;47.974;21.722;2023-03-15T03:14:43;99052.34;;;10.14;70.40
71299;BME280;59083;47.974;21.722;2023-03-15T03:17:45;99052.78;;;10.11;70.22
71299;BME280;59083;47.974;21.722;2023-03-15T03:20:47;99057.09;;;10.12;70.18
71299;BME280;59083;47.974;21.722;2023-03-15T03:23:49;99050.75;;;10.13;70.26
71299;BME280;59083;47.974;21.722;2023-03-15T03:26:50;99043.78;;;10.12;70.23
71299;BME280;59083;47.974;21.722;2023-03-15T03:29:51;99052.78;;;10.11;70.17
71299;BME280;59083;47.974;21.722;2023-03-15T03:32:52;99061.81;;;10.10;71.34
71299;BME280;59083;47.974;21.722;2023-03-15T03:36:00;99063.44;;;10.11;71.38
71299;BME280;59083;47.974;21.722;2023-03-15T03:39:02;99056.50;;;10.10;71.76
71299;BME280;59083;47.974;21.722;2023-03-15T03:42:04;99054.03;;;10.09;71.58
71299;BME280;59083;47.974;21.722;2023-03-15T03:45:06;99049.16;;;10.06;73.18
71299;BME280;59083;47.974;21.722;2023-03-15T03:48:08;99054.53;;;9.99;73.75
71299;BME280;59083;47.974;21.722;2023-03-15T03:51:09;99059.84;;;9.99;74.59
71299;BME280;59083;47.974;21.722;2023-03-15T03:54:11;99067.66;;;9.94;76.17
71299;BME280;59083;47.974;21.722;2023-03-15T03:57:13;99073.84;;;9.88;77.43
71299;BME280;59083;47.974;21.722;2023-03-15T04:00:15;99075.38;;;9.71;80.94
71299;BME280;59083;47.974;21.722;2023-03-15T04:03:17;99072.97;;;9.63;82.79
71299;BME280;59083;47.974;21.722;2023-03-15T04:06:20;99077.38;;;9.50;84.88
71299;BME280;59083;47.974;21.722;2023-03-15T04:09:23;99080.25;;;9.42;88.13
71299;BME280;59083;47.974;21.722;2023-03-15T04:12:25;99070.47;;;9.36;88.77
71299;BME280;59083;47.974;21.722;2023-03-15T04:15:27;99081.13;;;9.30;90.26
71299;BME280;59083;47.974;21.722;2023-03-15T04:18:28;99089.72;;;9.25;92.40
71299;BME280;59083;47.974;21.722;2023-03-15T04:21:30;99092.63;;;9.17;92.14
71299;BME280;59083;47.974;21.722;2023-03-15T04:24:33;99086.94;;;9.07;93.73
71299;BME280;59083;47.974;21.722;2023-03-15T04:27:35;99079.63;;;8.96;95.13
71299;BME280;59083;47.974;21.722;2023-03-15T04:30:37;99074.31;;;8.89;95.17
71299;BME280;59083;47.974;21.722;2023-03-15T04:33:38;99065.34;;;8.84;97.09
71299;BME280;59083;47.974;21.722;2023-03-15T04:36:41;99059.44;;;8.82;100.00
71299;BME280;59083;47.974;21.722;2023-03-15T04:39:43;99073.56;;;8.76;100.00
71299;BME280;59083;47.974;21.722;2023-03-15T04:42:44;99070.66;;;8.77;100.00
71299;BME280;59083;47.974;21.722;2023-03-15T04:45:46;99071.47;;;8.78;100.00
71299;BME280;59083;47.974;21.722;2023-03-15T04:48:48;99071.69;;;8.83;100.00
71299;BME280;59083;47.974;21.722;2023-03-15T04:51:51;99074.56;;;8.81;100.00
71299;BME280;59083;47.974;21.722;2023-03-15T04:54:52;99079.69;;;8.76;100.00
71299;BME280;59083;47.974;21.722;2023-03-15T04:57:54;99084.81;;;8.71;100.00
71299;BME280;59083;47.974;21.722;2023-03-15T05:00:56;99083.78;;;8.65;100.00
71299;BME280;59083;47.974;21.722;2023-03-15T05:03:59;99091.12;;;8.63;100.00
71299;BME280;59083;47.974;21.722;2023-03-15T05:07:00;99090.72;;;8.66;100.00
71299;BME280;59083;47.974;21.722;2023-03-15T05:10:04;99097.06;;;8.65;100.00
71299;BME280;59083;47.974;21.722;2023-03-15T05:13:05;99091.97;;;8.57;100.00
71299;BME280;59083;47.974;21.722;2023-03-15T05:16:07;99101.37;;;8.53;100.00
71299;BME280;59083;47.974;21.722;2023-03-15T05:19:09;99112.00;;;8.53;100.00
71299;BME280;59083;47.974;21.722;2023-03-15T05:22:12;99109.53;;;8.58;100.00
71299;BME280;59083;47.974;21.722;2023-03-15T05:25:15;99111.56;;;8.56;100.00
71299;BME280;59083;47.974;21.722;2023-03-15T05:28:17;99119.72;;;8.61;100.00
71299;BME280;59083;47.974;21.722;2023-03-15T05:31:18;99121.78;;;8.59;100.00
71299;BME280;59083;47.974;21.722;2023-03-15T05:34:21;99122.38;;;8.61;100.00
71299;BME280;59083;47.974;21.722;2023-03-15T05:37:25;99128.94;;;8.59;100.00
71299;BME280;59083;47.974;21.722;2023-03-15T05:40:26;99142.59;;;8.62;100.00
71299;BME280;59083;47.974;21.722;2023-03-15T05:43:30;99149.97;;;8.54;100.00
71299;BME280;59083;47.974;21.722;2023-03-15T05:46:34;99167.12;;;8.58;100.00
71299;BME280;59083;47.974;21.722;2023-03-15T05:49:35;99182.66;;;8.41;100.00
71299;BME280;59083;47.974;21.722;2023-03-15T05:52:36;99190.34;;;8.23;100.00
71299;BME280;59083;47.974;21.722;2023-03-15T05:55:38;99190.75;;;8.20;100.00
71299;BME280;59083;47.974;21.722;2023-03-15T05:58:40;99185.81;;;8.10;100.00
71299;BME280;59083;47.974;21.722;2023-03-15T06:01:43;99191.94;;;8.04;100.00
71299;BME280;59083;47.974;21.722;2023-03-15T06:04:45;99190.28;;;8.03;100.00
71299;BME280;59083;47.974;21.722;2023-03-15T06:07:49;99190.06;;;7.92;100.00
71299;BME280;59083;47.974;21.722;2023-03-15T06:10:51;99182.91;;;7.85;100.00
71299;BME280;59083;47.974;21.722;2023-03-15T06:13:54;99183.94;;;7.91;100.00
71299;BME280;59083;47.974;21.722;2023-03-15T06:16:58;99197.97;;;7.78;100.00
71299;BME280;59083;47.974;21.722;2023-03-15T06:20:00;99192.25;;;7.81;100.00
71299;BME280;59083;47.974;21.722;2023-03-15T06:23:01;99191.88;;;7.84;100.00
71299;BME280;59083;47.974;21.722;2023-03-15T06:26:03;99195.34;;;7.78;100.00
71299;BME280;59083;47.974;21.722;2023-03-15T06:29:05;99195.97;;;7.87;100.00
71299;BME280;59083;47.974;21.722;2023-03-15T06:32:07;99204.12;;;7.85;100.00
71299;BME280;59083;47.974;21.722;2023-03-15T06:35:09;99220.84;;;7.79;100.00
71299;BME280;59083;47.974;21.722;2023-03-15T06:38:11;99219.41;;;7.83;100.00
71299;BME280;59083;47.974;21.722;2023-03-15T06:41:14;99219.19;;;7.78;100.00
71299;BME280;59083;47.974;21.722;2023-03-15T06:44:15;99224.44;;;7.65;100.00
71299;BME280;59083;47.974;21.722;2023-03-15T06:47:17;99219.06;;;7.52;100.00
71299;BME280;59083;47.974;21.722;2023-03-15T06:50:18;99231.47;;;7.45;100.00
71299;BME280;59083;47.974;21.722;2023-03-15T06:53:20;99234.44;;;7.29;100.00
71299;BME280;59083;47.974;21.722;2023-03-15T06:56:22;99235.28;;;7.36;100.00
71299;BME280;59083;47.974;21.722;2023-03-15T06:59:23;99254.03;;;7.06;100.00
71299;BME280;59083;47.974;21.722;2023-03-15T07:02:24;99261.97;;;7.00;100.00
71299;BME280;59083;47.974;21.722;2023-03-15T07:05:26;99268.03;;;6.94;100.00
71299;BME280;59083;47.974;21.722;2023-03-15T07:08:27;99259.00;;;6.88;100.00
71299;BME280;59083;47.974;21.722;2023-03-15T07:11:28;99262.06;;;6.64;100.00
71299;BME280;59083;47.974;21.722;2023-03-15T07:14:29;99271.09;;;6.34;100.00
71299;BME280;59083;47.974;21.722;2023-03-15T07:17:31;99282.81;;;6.25;100.00
71299;BME280;59083;47.974;21.722;2023-03-15T07:20:32;99275.25;;;6.21;100.00
71299;BME280;59083;47.974;21.722;2023-03-15T07:23:34;99274.56;;;6.13;100.00
71299;BME280;59083;47.974;21.722;2023-03-15T07:26:35;99295.44;;;6.08;100.00
71299;BME280;59083;47.974;21.722;2023-03-15T07:29:36;99291.16;;;6.07;100.00
71299;BME280;59083;47.974;21.722;2023-03-15T07:32:37;99292.19;;;5.91;100.00
71299;BME280;59083;47.974;21.722;2023-03-15T07:35:39;99290.81;;;5.95;99.26
71299;BME280;59083;47.974;21.722;2023-03-15T07:38:40;99322.94;;;5.92;98.78
71299;BME280;59083;47.974;21.722;2023-03-15T07:41:41;99313.13;;;5.78;98.54
71299;BME280;59083;47.974;21.722;2023-03-15T07:44:47;99315.50;;;5.73;98.28
71299;BME280;59083;47.974;21.722;2023-03-15T07:47:48;99299.47;;;5.60;97.23
71299;BME280;59083;47.974;21.722;2023-03-15T07:50:50;99317.59;;;5.63;96.94
71299;BME280;59083;47.974;21.722;2023-03-15T07:53:51;99333.25;;;5.64;97.77
71299;BME280;59083;47.974;21.722;2023-03-15T07:56:52;99320.78;;;5.44;97.70
71299;BME280;59083;47.974;21.722;2023-03-15T07:59:53;99337.34;;;5.37;96.98
71299;BME280;59083;47.974;21.722;2023-03-15T08:02:54;99343.19;;;5.48;96.32
71299;BME280;59083;47.974;21.722;2023-03-15T08:05:56;99358.63;;;5.21;96.82
71299;BME280;59083;47.974;21.722;2023-03-15T08:08:57;99347.63;;;5.32;96.45
71299;BME280;59083;47.974;21.722;2023-03-15T08:11:59;99356.25;;;5.12;96.61
71299;BME280;59083;47.974;21.722;2023-03-15T08:15:00;99363.91;;;5.21;95.55
71299;BME280;59083;47.974;21.722;2023-03-15T08:18:02;99358.91;;;5.26;95.51
71299;BME280;59083;47.974;21.722;2023-03-15T08:21:03;99382.34;;;5.29;96.11
71299;BME280;59083;47.974;21.722;2023-03-15T08:24:04;99372.97;;;5.04;95.59
71299;BME280;59083;47.974;21.722;2023-03-15T08:27:06;99379.50;;;5.31;93.95
71299;BME280;59083;47.974;21.722;2023-03-15T08:30:09;99399.47;;;5.33;93.61
71299;BME280;59083;47.974;21.722;2023-03-15T08:33:12;99380.47;;;5.15;94.15
71299;BME280;59083;47.974;21.722;2023-03-15T08:36:13;99402.03;;;4.96;95.92
71299;BME280;59083;47.974;21.722;2023-03-15T08:39:14;99404.94;;;5.09;95.23
71299;BME280;59083;47.974;21.722;2023-03-15T08:42:16;99414.84;;;5.07;95.00
71299;BME280;59083;47.974;21.722;2023-03-15T08:45:18;99419.06;;;5.16;94.76
71299;BME280;59083;47.974;21.722;2023-03-15T08:48:19;99424.69;;;5.13;94.65
71299;BME280;59083;47.974;21.722;2023-03-15T08:51:20;99417.78;;;5.12;94.70
71299;BME280;59083;47.974;21.722;2023-03-15T08:54:22;99431.88;;;5.27;95.18
71299;BME280;59083;47.974;21.722;2023-03-15T08:57:23;99435.50;;;5.26;94.75
71299;BME280;59083;47.974;21.722;2023-03-15T09:00:26;99427.53;;;5.12;94.61
71299;BME280;59083;47.974;21.722;2023-03-15T09:03:28;99410.75;;;5.27;95.14
71299;BME280;59083;47.974;21.722;2023-03-15T09:06:29;99442.75;;;5.02;96.16
71299;BME280;59083;47.974;21.722;2023-03-15T09:09:31;99478.09;;;5.01;95.85
71299;BME280;59083;47.974;21.722;2023-03-15T09:12:32;99467.72;;;4.99;94.90
71299;BME280;59083;47.974;21.722;2023-03-15T09:15:33;99446.66;;;5.14;95.68
71299;BME280;59083;47.974;21.722;2023-03-15T09:18:35;99481.00;;;4.83;94.74
71299;BME280;59083;47.974;21.722;2023-03-15T09:21:36;99486.28;;;4.83;95.22
71299;BME280;59083;47.974;21.722;2023-03-15T09:24:37;99497.44;;;4.93;95.17
71299;BME280;59083;47.974;21.722;2023-03-15T09:27:38;99491.47;;;4.99;94.73
71299;BME280;59083;47.974;21.722;2023-03-15T09:30:41;99490.09;;;5.11;94.94
71299;BME280;59083;47.974;21.722;2023-03-15T09:33:42;99504.91;;;4.89;94.62
71299;BME280;59083;47.974;21.722;2023-03-15T09:36:46;99503.41;;;4.87;96.19
71299;BME280;59083;47.974;21.722;2023-03-15T09:39:52;99504.47;;;4.78;96.78
71299;BME280;59083;47.974;21.722;2023-03-15T09:43:09;99498.84;;;4.73;96.01
71299;BME280;59083;47.974;21.722;2023-03-15T09:46:34;99511.16;;;4.49;97.88
71299;BME280;59083;47.974;21.722;2023-03-15T09:49:53;99505.25;;;4.39;98.12
71299;BME280;59083;47.974;21.722;2023-03-15T09:52:57;99528.81;;;4.49;99.38
71299;BME280;59083;47.974;21.722;2023-03-15T09:56:01;99528.59;;;4.58;99.24
71299;BME280;59083;47.974;21.722;2023-03-15T09:59:03;99486.25;;;4.52;98.91
71299;BME280;59083;47.974;21.722;2023-03-15T10:02:25;99532.81;;;4.04;100.00
71299;BME280;59083;47.974;21.722;2023-03-15T10:05:39;99530.34;;;4.19;99.99
71299;BME280;59083;47.974;21.722;2023-03-15T10:08:41;99521.28;;;4.13;100.00
71299;BME280;59083;47.974;21.722;2023-03-15T10:12:02;99529.69;;;4.25;100.00
71299;BME280;59083;47.974;21.722;2023-03-15T10:25:30;99539.56;;;4.31;100.00
71299;BME280;59083;47.974;21.722;2023-03-15T10:28:32;99549.59;;;4.28;100.00
71299;BME280;59083;47.974;21.722;2023-03-15T10:31:37;99537.94;;;4.14;100.00
71299;BME280;59083;47.974;21.722;2023-03-15T10:34:39;99542.50;;;4.36;100.00
71299;BME280;59083;47.974;21.722;2023-03-15T10:37:41;99543.72;;;4.09;100.00
71299;BME280;59083;47.974;21.722;2023-03-15T10:40:46;99539.25;;;4.18;100.00
71299;BME280;59083;47.974;21.722;2023-03-15T10:44:02;99542.56;;;3.96;100.00
71299;BME280;59083;47.974;21.722;2023-03-15T10:47:12;99535.81;;;4.09;100.00
71299;BME280;59083;47.974;21.722;2023-03-15T10:50:28;99537.63;;;4.01;99.53
71299;BME280;59083;47.974;21.722;2023-03-15T10:53:30;99543.56;;;3.95;98.69
71299;BME280;59083;47.974;21.722;2023-03-15T10:56:36;99550.81;;;3.85;99.93
71299;BME280;59083;47.974;21.722;2023-03-15T11:00:03;99559.69;;;4.08;99.27
71299;BME280;59083;47.974;21.722;2023-03-15T11:03:22;99564.31;;;4.06;99.16
71299;BME280;59083;47.974;21.722;2023-03-15T11:06:25;99566.94;;;4.06;99.31
71299;BME280;59083;47.974;21.722;2023-03-15T11:09:43;99548.47;;;4.22;99.28
71299;BME280;59083;47.974;21.722;2023-03-15T11:12:44;99536.59;;;4.26;98.59
71299;BME280;59083;47.974;21.722;2023-03-15T11:16:01;99570.25;;;4.08;97.72
71299;BME280;59083;47.974;21.722;2023-03-15T11:19:11;99567.56;;;4.16;99.09
71299;BME280;59083;47.974;21.722;2023-03-15T11:22:15;99588.03;;;4.06;100.00
71299;BME280;59083;47.974;21.722;2023-03-15T11:25:16;99594.63;;;4.10;98.99
71299;BME280;59083;47.974;21.722;2023-03-15T11:28:26;99571.53;;;4.12;98.78
71299;BME280;59083;47.974;21.722;2023-03-15T11:31:29;99568.25;;;3.94;99.32
71299;BME280;59083;47.974;21.722;2023-03-15T11:34:49;99572.38;;;3.80;99.70
71299;BME280;59083;47.974;21.722;2023-03-15T11:37:55;99605.09;;;3.45;100.00
71299;BME280;59083;47.974;21.722;2023-03-15T11:41:01;99586.66;;;3.53;100.00
71299;BME280;59083;47.974;21.722;2023-03-15T11:44:32;99586.84;;;3.60;100.00
71299;BME280;59083;47.974;21.722;2023-03-15T11:47:47;99578.78;;;3.61;100.00
71299;BME280;59083;47.974;21.722;2023-03-15T11:50:54;99573.84;;;3.58;100.00
71299;BME280;59083;47.974;21.722;2023-03-15T11:54:16;99595.84;;;3.33;100.00
71299;BME280;59083;47.974;21.722;2023-03-15T12:03:38;99575.13;;;3.30;100.00
71299;BME280;59083;47.974;21.722;2023-03-15T12:06:40;99588.97;;;3.48;100.00
71299;BME280;59083;47.974;21.722;2023-03-15T12:13:14;99605.09;;;3.45;100.00
71299;BME280;59083;47.974;21.722;2023-03-15T12:16:20;99583.28;;;3.11;100.00
71299;BME280;59083;47.974;21.722;2023-03-15T12:19:23;99574.28;;;3.29;100.00
71299;BME280;59083;47.974;21.722;2023-03-15T12:22:29;99599.75;;;3.13;100.00
71299;BME280;59083;47.974;21.722;2023-03-15T12:25:36;99579.38;;;2.81;100.00
71299;BME280;59083;47.974;21.722;2023-03-15T12:29:01;99599.63;;;2.88;100.00
71299;BME280;59083;47.974;21.722;2023-03-15T12:32:15;99609.47;;;2.86;100.00
71299;BME280;59083;47.974;21.722;2023-03-15T12:35:19;99595.97;;;2.81;100.00
71299;BME280;59083;47.974;21.722;2023-03-15T12:38:22;99609.81;;;2.83;100.00
71299;BME280;59083;47.974;21.722;2023-03-15T12:41:45;99619.84;;;2.54;100.00
71299;BME280;59083;47.974;21.722;2023-03-15T12:44:47;99602.09;;;2.56;100.00
71299;BME280;59083;47.974;21.722;2023-03-15T12:50:53;99616.44;;;2.36;100.00
71299;BME280;59083;47.974;21.722;2023-03-15T12:53:55;99624.38;;;2.44;100.00
71299;BME280;59083;47.974;21.722;2023-03-15T12:56:59;99636.84;;;2.42;100.00
71299;BME280;59083;47.974;21.722;2023-03-15T13:03:19;99625.25;;;2.53;100.00
71299;BME280;59083;47.974;21.722;2023-03-15T13:09:51;99631.91;;;2.39;100.00
71299;BME280;59083;47.974;21.722;2023-03-15T13:13:22;99647.47;;;2.32;100.00
71299;BME280;59083;47.974;21.722;2023-03-15T13:16:32;99642.41;;;2.39;100.00
71299;BME280;59083;47.974;21.722;2023-03-15T13:19:41;99633.97;;;2.53;100.00
71299;BME280;59083;47.974;21.722;2023-03-15T13:22:56;99634.56;;;2.47;100.00
71299;BME280;59083;47.974;21.722;2023-03-15T13:29:22;99622.72;;;2.43;100.00
71299;BME280;59083;47.974;21.722;2023-03-15T13:32:26;99631.47;;;2.52;100.00
71299;BME280;59083;47.974;21.722;2023-03-15T13:35:27;99652.69;;;2.50;100.00
71299;BME280;59083;47.974;21.722;2023-03-15T13:38:36;99651.91;;;2.58;100.00
71299;BME280;59083;47.974;21.722;2023-03-15T13:41:39;99648.19;;;2.68;100.00
71299;BME280;59083;47.974;21.722;2023-03-15T13:44:40;99659.72;;;2.67;100.00
71299;BME280;59083;47.974;21.722;2023-03-15T13:47:44;99661.31;;;2.68;100.00
71299;BME280;59083;47.974;21.722;2023-03-15T13:50:49;99666.22;;;2.63;100.00
71299;BME280;59083;47.974;21.722;2023-03-15T13:54:02;99657.00;;;2.59;100.00
71299;BME280;59083;47.974;21.722;2023-03-15T13:57:10;99667.28;;;2.70;100.00
71299;BME280;59083;47.974;21.722;2023-03-15T14:00:15;99663.31;;;2.66;100.00
71299;BME280;59083;47.974;21.722;2023-03-15T14:03:20;99663.66;;;2.71;100.00
71299;BME280;59083;47.974;21.722;2023-03-15T14:06:24;99652.81;;;2.74;100.00
71299;BME280;59083;47.974;21.722;2023-03-15T14:09:26;99680.06;;;2.65;100.00
71299;BME280;59083;47.974;21.722;2023-03-15T14:12:30;99676.13;;;2.69;100.00
71299;BME280;59083;47.974;21.722;2023-03-15T14:15:36;99672.47;;;2.88;100.00
71299;BME280;59083;47.974;21.722;2023-03-15T14:18:39;99682.19;;;2.87;100.00
71299;BME280;59083;47.974;21.722;2023-03-15T14:21:43;99677.88;;;2.86;100.00
71299;BME280;59083;47.974;21.722;2023-03-15T14:24:47;99671.28;;;2.82;100.00
71299;BME280;59083;47.974;21.722;2023-03-15T14:27:49;99681.81;;;2.82;100.00
71299;BME280;59083;47.974;21.722;2023-03-15T14:30:53;99682.94;;;2.80;100.00
71299;BME280;59083;47.974;21.722;2023-03-15T14:34:30;99665.91;;;2.92;100.00
71299;BME280;59083;47.974;21.722;2023-03-15T14:37:37;99662.78;;;2.88;100.00
71299;BME280;59083;47.974;21.722;2023-03-15T14:40:39;99676.22;;;2.85;100.00
71299;BME280;59083;47.974;21.722;2023-03-15T14:43:40;99664.44;;;2.89;100.00
71299;BME280;59083;47.974;21.722;2023-03-15T14:46:41;99665.28;;;2.98;100.00
71299;BME280;59083;47.974;21.722;2023-03-15T14:49:43;99666.75;;;2.92;100.00
71299;BME280;59083;47.974;21.722;2023-03-15T14:52:44;99669.84;;;2.88;100.00
71299;BME280;59083;47.974;21.722;2023-03-15T14:55:46;99671.31;;;2.90;100.00
71299;BME280;59083;47.974;21.722;2023-03-15T14:58:47;99682.75;;;2.99;100.00
71299;BME280;59083;47.974;21.722;2023-03-15T15:01:51;99701.63;;;2.95;100.00
71299;BME280;59083;47.974;21.722;2023-03-15T15:04:53;99701.31;;;2.98;100.00
71299;BME280;59083;47.974;21.722;2023-03-15T15:08:15;99711.84;;;2.98;100.00
71299;BME280;59083;47.974;21.722;2023-03-15T15:11:18;99722.53;;;2.96;100.00
71299;BME280;59083;47.974;21.722;2023-03-15T15:14:20;99713.50;;;2.99;100.00
71299;BME280;59083;47.974;21.722;2023-03-15T15:17:22;99714.19;;;3.09;100.00
71299;BME280;59083;47.974;21.722;2023-03-15T15:20:23;99711.53;;;3.01;100.00
71299;BME280;59083;47.974;21.722;2023-03-15T15:23:30;99731.28;;;3.05;100.00
71299;BME280;59083;47.974;21.722;2023-03-15T15:26:32;99728.34;;;3.08;100.00
71299;BME280;59083;47.974;21.722;2023-03-15T15:29:34;99734.97;;;3.12;100.00
71299;BME280;59083;47.974;21.722;2023-03-15T15:32:35;99734.59;;;3.07;100.00
71299;BME280;59083;47.974;21.722;2023-03-15T15:35:37;99717.81;;;3.08;100.00
71299;BME280;59083;47.974;21.722;2023-03-15T15:38:38;99729.69;;;3.12;100.00
71299;BME280;59083;47.974;21.722;2023-03-15T15:41:40;99751.25;;;3.15;100.00
71299;BME280;59083;47.974;21.722;2023-03-15T15:44:41;99738.25;;;3.14;100.00
71299;BME280;59083;47.974;21.722;2023-03-15T15:47:43;99745.69;;;3.18;100.00
71299;BME280;59083;47.974;21.722;2023-03-15T15:50:44;99754.78;;;3.24;100.00
71299;BME280;59083;47.974;21.722;2023-03-15T15:53:46;99753.41;;;3.20;100.00
71299;BME280;59083;47.974;21.722;2023-03-15T15:56:50;99750.84;;;3.28;100.00
71299;BME280;59083;47.974;21.722;2023-03-15T15:59:52;99738.78;;;3.17;100.00
71299;BME280;59083;47.974;21.722;2023-03-15T16:02:54;99760.97;;;3.15;100.00
71299;BME280;59083;47.974;21.722;2023-03-15T16:05:56;99762.41;;;3.09;100.00
71299;BME280;59083;47.974;21.722;2023-03-15T16:08:57;99765.25;;;3.16;100.00
71299;BME280;59083;47.974;21.722;2023-03-15T16:11:58;99760.19;;;3.22;100.00
71299;BME280;59083;47.974;21.722;2023-03-15T16:15:00;99769.75;;;3.23;100.00
71299;BME280;59083;47.974;21.722;2023-03-15T16:18:01;99775.50;;;3.27;100.00
71299;BME280;59083;47.974;21.722;2023-03-15T16:21:02;99802.66;;;3.27;100.00
71299;BME280;59083;47.974;21.722;2023-03-15T16:24:18;99767.75;;;3.25;100.00
71299;BME280;59083;47.974;21.722;2023-03-15T16:27:22;99789.00;;;3.24;100.00
71299;BME280;59083;47.974;21.722;2023-03-15T16:30:27;99809.38;;;3.22;100.00
71299;BME280;59083;47.974;21.722;2023-03-15T16:33:30;99796.38;;;3.20;100.00
71299;BME280;59083;47.974;21.722;2023-03-15T16:36:34;99803.44;;;3.20;100.00
71299;BME280;59083;47.974;21.722;2023-03-15T16:39:35;99812.56;;;3.08;100.00
71299;BME280;59083;47.974;21.722;2023-03-15T16:42:37;99808.34;;;3.15;100.00
71299;BME280;59083;47.974;21.722;2023-03-15T16:45:39;99830.63;;;3.03;100.00
71299;BME280;59083;47.974;21.722;2023-03-15T16:48:41;99813.13;;;2.94;100.00
71299;BME280;59083;47.974;21.722;2023-03-15T16:51:45;99847.94;;;2.87;100.00